Time;durP1;ratioP1;P1;durP2;ratioP2;P2;SDS_P1;SDS_P2;PMS_P1;PMS_P2;Temp;Humidity;BMP_temperature;BMP_pressure;BME280_temperature;BME280_humidity;BME280_pressure;Samples;Min_cycle;Max_cycle;Signal;HPM_P1;HPM_P2
2023/08/11 00:01:25;;;;;;;3.20;2.00;;;;;;;29.64;79.59;100762.73;108746;1260;62591;-91
2023/08/11 00:04:14;;;;;;;6.80;2.20;;;;;;;29.65;79.73;100759.27;108626;1260;59634;-88
2023/08/11 00:07:02;;;;;;;4.10;2.40;;;;;;;29.58;79.93;100760.15;108780;1258;59185;-89
2023/08/11 00:09:50;;;;;;;4.80;2.40;;;;;;;29.51;80.55;100757.02;108706;1259;64656;-88
2023/08/11 00:12:39;;;;;;;7.90;2.30;;;;;;;29.56;80.11;100752.02;108696;1259;61173;-90
2023/08/11 00:15:31;;;;;;;3.50;2.30;;;;;;;29.57;80.34;100746.70;108763;1259;64024;-91
2023/08/11 00:18:19;;;;;;;4.10;2.30;;;;;;;29.55;80.44;100748.16;108593;1259;59210;-90
2023/08/11 00:21:07;;;;;;;3.50;2.10;;;;;;;29.49;80.71;100750.58;108738;1259;59084;-90
2023/08/11 00:23:55;;;;;;;5.00;2.20;;;;;;;29.54;80.52;100749.05;108696;1259;68143;-90
2023/08/11 00:26:43;;;;;;;3.70;2.40;;;;;;;29.61;80.02;100749.77;108667;1261;60158;-88
2023/08/11 00:29:31;;;;;;;3.40;2.20;;;;;;;29.63;80.36;100751.95;108798;1259;63694;-89
2023/08/11 00:32:21;;;;;;;3.50;2.00;;;;;;;29.72;80.11;100748.19;108688;1259;59104;-91
2023/08/11 00:35:08;;;;;;;5.70;2.60;;;;;;;29.67;80.19;100747.20;108645;1262;59335;-90
2023/08/11 00:37:56;;;;;;;3.80;2.40;;;;;;;29.68;79.87;100744.46;108692;1262;67264;-92
2023/08/11 00:40:44;;;;;;;4.00;2.20;;;;;;;29.57;80.30;100741.41;108575;1257;60217;-88
2023/08/11 00:43:32;;;;;;;4.40;2.70;;;;;;;29.49;80.70;100738.42;108600;1263;62879;-89
2023/08/11 00:46:21;;;;;;;5.20;2.60;;;;;;;29.40;81.30;100735.92;108638;1259;60184;-89
2023/08/11 00:49:10;;;;;;;3.70;2.70;;;;;;;29.36;81.36;100738.83;108687;1260;59877;-91
2023/08/11 00:51:57;;;;;;;7.10;2.50;;;;;;;29.38;81.12;100737.54;108709;1258;75453;-91
2023/08/11 00:54:45;;;;;;;5.10;2.70;;;;;;;29.31;81.38;100733.59;108588;1260;60806;-89
2023/08/11 00:57:36;;;;;;;5.20;2.50;;;;;;;29.28;81.57;100735.45;108724;1259;63773;-89
2023/08/11 01:00:24;;;;;;;4.20;2.20;;;;;;;29.26;81.44;100732.86;108641;1260;61984;-89
2023/08/11 01:03:12;;;;;;;5.90;2.80;;;;;;;29.20;81.84;100725.79;108562;1258;59805;-88
2023/08/11 01:06:28;;;;;;;4.40;2.60;;;;;;;29.13;82.28;100721.68;108612;1260;66028;-89
2023/08/11 01:09:19;;;;;;;5.40;2.70;;;;;;;29.12;81.95;100718.77;108793;1259;59225;-89
2023/08/11 01:12:23;;;;;;;4.40;2.70;;;;;;;29.15;81.55;100715.81;108676;1261;65069;-92
2023/08/11 01:15:14;;;;;;;7.10;2.60;;;;;;;29.19;81.29;100715.65;108700;1261;59251;-88
2023/08/11 01:18:03;;;;;;;4.50;2.20;;;;;;;29.22;80.46;100714.77;108599;1259;59841;-90
2023/08/11 01:20:59;;;;;;;3.40;2.30;;;;;;;29.08;81.12;100707.36;108728;1260;64491;-89
2023/08/11 01:23:47;;;;;;;6.30;2.30;;;;;;;29.13;80.78;100704.40;108749;1260;61120;-91
2023/08/11 01:26:34;;;;;;;2.70;2.40;;;;;;;29.22;80.04;100706.17;108710;1259;64596;-88
2023/08/11 01:29:22;;;;;;;3.50;2.30;;;;;;;29.07;80.52;100704.70;108615;1259;59905;-91
2023/08/11 01:32:10;;;;;;;4.90;3.00;;;;;;;28.90;81.29;100702.08;108605;1260;59524;-90
2023/08/11 01:34:58;;;;;;;3.50;2.60;;;;;;;28.88;81.16;100695.81;108702;1259;66021;-90
2023/08/11 01:37:47;;;;;;;3.90;2.60;;;;;;;28.82;81.67;100690.26;108754;1260;61106;-91
2023/08/11 01:40:36;;;;;;;4.70;2.80;;;;;;;28.77;82.22;100688.16;108703;1260;63977;-89
2023/08/11 01:43:24;;;;;;;3.70;2.40;;;;;;;28.75;82.46;100683.73;108763;1259;59677;-89
2023/08/11 01:46:12;;;;;;;5.70;2.60;;;;;;;28.79;82.20;100687.27;108551;1260;59158;-91
2023/08/11 01:49:00;;;;;;;4.50;2.70;;;;;;;28.80;82.03;100684.70;108802;1258;65932;-90
2023/08/11 01:51:47;;;;;;;7.00;2.60;;;;;;;28.68;82.95;100689.09;108569;1264;60136;-91
2023/08/11 01:54:35;;;;;;;4.20;2.50;;;;;;;28.67;83.29;100695.12;108622;1260;63690;-91
2023/08/11 01:57:23;;;;;;;5.60;2.80;;;;;;;28.78;82.86;100701.34;108617;1260;59109;-91
2023/08/11 02:00:14;;;;;;;7.00;3.00;;;;;;;28.89;82.29;100698.15;108677;1258;59197;-88
2023/08/11 02:03:02;;;;;;;7.80;2.60;;;;;;;28.99;81.95;100694.70;108646;1259;65981;-90
2023/08/11 02:05:50;;;;;;;3.80;2.90;;;;;;;28.96;82.30;100690.77;108732;1260;60158;-91
2023/08/11 02:08:40;;;;;;;5.70;2.70;;;;;;;28.95;82.49;100692.86;108796;1259;64612;-91
2023/08/11 02:11:28;;;;;;;3.70;2.60;;;;;;;29.02;81.88;100693.91;108723;1259;60110;-89
2023/08/11 02:14:16;;;;;;;4.20;2.50;;;;;;;28.97;82.41;100689.40;108707;1260;59242;-90
2023/08/11 02:17:04;;;;;;;4.60;2.50;;;;;;;29.05;81.93;100685.42;108730;1258;64648;-88
2023/08/11 02:19:54;;;;;;;3.40;2.60;;;;;;;29.07;81.44;100681.95;108764;1260;59959;-88
2023/08/11 02:22:42;;;;;;;5.60;2.80;;;;;;;29.19;80.70;100684.21;108771;1260;65145;-90
2023/08/11 02:25:30;;;;;;;4.20;2.60;;;;;;;29.22;80.36;100687.19;108724;1259;62107;-89
2023/08/11 02:28:18;;;;;;;4.00;2.80;;;;;;;29.17;80.71;100691.77;108789;1259;59398;-89
2023/08/11 02:31:08;;;;;;;5.40;2.90;;;;;;;29.23;80.49;100694.52;108733;1260;66863;-89
2023/08/11 02:33:59;;;;;;;4.50;2.30;;;;;;;29.26;80.25;100691.23;108698;1260;59897;-88
2023/08/11 02:36:47;;;;;;;10.60;2.80;;;;;;;29.16;80.91;100685.19;108725;1260;65097;-90
2023/08/11 02:39:35;;;;;;;4.10;2.90;;;;;;;29.06;81.72;100680.42;108748;1258;59617;-88
2023/08/11 02:42:25;;;;;;;4.70;2.40;;;;;;;29.08;81.77;100675.78;108774;1260;59475;-92
2023/08/11 02:45:13;;;;;;;5.60;2.60;;;;;;;29.05;81.98;100686.78;108719;1259;64566;-91
2023/08/11 02:48:01;;;;;;;3.60;2.80;;;;;;;29.02;82.31;100691.19;108678;1259;60885;-89
2023/08/11 02:50:49;;;;;;;3.70;2.70;;;;;;;29.07;82.17;100693.45;108649;1260;64735;-90
2023/08/11 02:53:38;;;;;;;3.60;2.70;;;;;;;29.25;81.30;100699.10;108711;1259;59505;-89
2023/08/11 02:56:27;;;;;;;3.20;2.50;;;;;;;29.26;81.27;100696.20;108683;1257;59582;-91
2023/08/11 02:59:14;;;;;;;4.80;2.80;;;;;;;29.22;81.78;100695.16;108795;1257;64932;-91
2023/08/11 03:02:02;;;;;;;4.60;2.80;;;;;;;29.29;81.36;100690.59;108733;1258;60141;-89
2023/08/11 03:04:50;;;;;;;4.10;2.40;;;;;;;29.37;80.71;100690.83;108798;1259;64865;-88
2023/08/11 03:07:38;;;;;;;4.40;2.70;;;;;;;29.46;80.08;100692.67;108577;1260;59347;-90
2023/08/11 03:10:26;;;;;;;6.50;2.80;;;;;;;29.50;79.90;100691.61;108636;1260;60778;-90
2023/08/11 03:13:15;;;;;;;5.20;3.00;;;;;;;29.50;80.18;100696.12;108757;1259;67184;-89
2023/08/11 03:16:03;;;;;;;5.80;3.50;;;;;;;29.55;80.14;100693.95;108547;1260;60880;-92
2023/08/11 03:18:52;;;;;;;10.20;2.80;;;;;;;29.65;79.76;100693.38;108739;1259;65145;-92
2023/08/11 03:21:40;;;;;;;5.30;2.90;;;;;;;29.57;80.61;100692.98;108787;1258;59177;-89
2023/08/11 03:24:29;;;;;;;7.00;2.70;;;;;;;29.49;81.01;100691.86;108637;1259;59226;-89
2023/08/11 03:27:18;;;;;;;7.80;2.90;;;;;;;29.48;81.43;100694.03;108725;1259;66388;-91
2023/08/11 03:30:08;;;;;;;5.10;2.80;;;;;;;29.55;81.27;100694.19;108718;1259;61065;-92
2023/08/11 03:32:58;;;;;;;3.50;2.30;;;;;;;29.56;81.16;100694.02;108648;1260;65065;-91
2023/08/11 03:36:08;;;;;;;5.40;2.60;;;;;;;29.64;80.62;100694.91;108652;1259;59833;-89
2023/08/11 03:38:57;;;;;;;5.10;2.50;;;;;;;29.68;80.58;100701.10;108681;1258;59475;-89
2023/08/11 03:41:46;;;;;;;4.70;2.70;;;;;;;29.72;80.73;100705.14;108695;1258;67071;-88
2023/08/11 03:44:34;;;;;;;5.50;2.40;;;;;;;29.75;80.30;100706.81;108780;1258;59816;-88
2023/08/11 03:47:22;;;;;;;6.20;2.60;;;;;;;29.76;80.10;100714.14;108784;1258;62584;-91
2023/08/11 03:50:11;;;;;;;4.40;2.90;;;;;;;29.52;81.97;100715.66;108731;1259;59162;-89
2023/08/11 03:52:58;;;;;;;4.60;2.80;;;;;;;29.33;83.55;100718.23;108677;1259;59247;-90
2023/08/11 03:55:46;;;;;;;5.50;2.70;;;;;;;29.23;84.56;100723.93;108727;1258;66060;-89
2023/08/11 03:58:36;;;;;;;3.30;2.70;;;;;;;29.28;84.87;100721.30;108744;1258;59778;-91
2023/08/11 04:01:25;;;;;;;5.80;3.00;;;;;;;29.49;83.97;100721.05;108793;1258;66526;-89
2023/08/11 04:04:12;;;;;;;5.80;2.60;;;;;;;29.55;83.72;100723.63;108662;1259;59594;-90
2023/08/11 04:07:00;;;;;;;6.00;3.20;;;;;;;29.63;83.94;100720.66;108684;1259;59184;-88
2023/08/11 04:09:50;;;;;;;5.60;2.60;;;;;;;29.67;84.97;100717.27;108707;1257;75145;-87
2023/08/11 04:12:38;;;;;;;4.80;2.80;;;;;;;29.73;85.04;100714.94;108772;1258;59263;-91
2023/08/11 04:15:26;;;;;;;7.10;2.90;;;;;;;29.57;86.26;100715.18;108668;1259;64093;-87
2023/08/11 04:18:14;;;;;;;4.00;2.80;;;;;;;29.62;85.82;100711.80;108713;1258;59146;-89
2023/08/11 04:21:02;;;;;;;4.30;2.80;;;;;;;29.67;85.43;100705.69;108638;1259;59318;-87
2023/08/11 04:23:50;;;;;;;5.80;2.60;;;;;;;29.72;85.19;100698.86;108730;1258;66043;-88
2023/08/11 04:26:38;;;;;;;3.20;2.30;;;;;;;29.86;84.63;100694.33;108730;1259;60967;-92
2023/08/11 04:29:27;;;;;;;4.50;2.50;;;;;;;30.06;83.57;100690.90;108622;1259;62688;-91
2023/08/11 04:32:16;;;;;;;4.50;2.60;;;;;;;29.98;84.05;100693.33;108747;1258;59180;-91
2023/08/11 04:35:08;;;;;;;5.80;2.90;;;;;;;29.96;84.56;100698.89;108710;1257;59553;-90
2023/08/11 04:37:56;;;;;;;3.50;2.50;;;;;;;30.02;84.00;100698.95;108651;1259;68315;-87
2023/08/11 04:40:49;;;;;;;3.00;2.40;;;;;;;30.09;83.00;100695.39;108734;1259;59798;-87
2023/08/11 04:43:38;;;;;;;6.40;2.90;;;;;;;29.91;83.47;100692.63;108724;1258;65139;-89
2023/08/11 04:46:27;;;;;;;4.90;3.00;;;;;;;29.82;83.84;100696.02;108673;1257;59126;-93
2023/08/11 04:49:15;;;;;;;6.90;2.90;;;;;;;29.95;83.02;100690.28;108645;1258;59355;-93
2023/08/11 04:52:04;;;;;;;5.90;2.50;;;;;;;30.04;82.36;100690.50;108699;1259;65822;-92
2023/08/11 04:54:52;;;;;;;6.20;2.90;;;;;;;29.99;82.61;100692.52;108690;1258;61680;-92
2023/08/11 04:57:40;;;;;;;3.90;3.00;;;;;;;29.90;83.54;100690.30;108499;1259;65439;-89
2023/08/11 05:00:28;;;;;;;6.90;2.90;;;;;;;29.99;83.92;100692.13;108642;1259;60218;-90
2023/08/11 05:03:16;;;;;;;5.10;2.90;;;;;;;30.18;83.43;100693.41;108782;1258;58976;-94
2023/08/11 05:06:04;;;;;;;6.10;2.80;;;;;;;30.27;82.18;100698.73;108721;1257;65996;-89
2023/08/11 05:08:53;;;;;;;3.50;2.70;;;;;;;30.30;80.63;100701.87;108661;1257;60540;-90
2023/08/11 05:11:41;;;;;;;3.80;2.80;;;;;;;30.22;80.26;100703.00;108771;1258;63856;-88
2023/08/11 05:14:30;;;;;;;4.50;2.50;;;;;;;30.19;79.71;100705.34;108685;1257;62708;-92
2023/08/11 05:17:18;;;;;;;4.90;3.00;;;;;;;30.25;79.50;100702.99;108712;1257;59133;-89
2023/08/11 05:20:07;;;;;;;6.30;2.80;;;;;;;30.27;80.38;100701.46;108568;1258;65751;-89
2023/08/11 05:22:55;;;;;;;3.00;2.50;;;;;;;30.39;80.01;100699.17;108678;1259;61030;-89
2023/08/11 05:25:43;;;;;;;5.60;2.80;;;;;;;30.61;79.00;100694.63;108669;1259;62557;-93
2023/08/11 05:28:31;;;;;;;3.60;2.50;;;;;;;30.91;77.77;100691.98;108483;1259;59207;-89
2023/08/11 05:31:19;;;;;;;10.00;2.70;;;;;;;31.07;77.60;100688.33;108509;1259;59207;-93
2023/08/11 05:34:09;;;;;;;3.60;2.70;;;;;;;31.22;75.54;100685.95;108721;1258;66847;-93
2023/08/11 05:36:57;;;;;;;3.60;2.30;;;;;;;31.27;74.31;100693.17;108736;1258;60819;-92
2023/08/11 05:39:46;;;;;;;6.20;2.60;;;;;;;31.40;73.20;100701.72;108773;1258;62851;-93
2023/08/11 05:42:33;;;;;;;3.60;2.50;;;;;;;31.43;72.98;100704.52;108593;1259;59312;-89
2023/08/11 05:45:21;;;;;;;6.40;3.40;;;;;;;31.48;73.89;100712.38;108752;1258;59400;-92
2023/08/11 05:48:09;;;;;;;3.70;2.60;;;;;;;31.36;73.86;100717.14;108667;1259;65847;-90
2023/08/11 05:50:57;;;;;;;5.30;3.10;;;;;;;31.23;73.49;100723.12;108554;1258;61099;-88
2023/08/11 05:53:46;;;;;;;5.70;3.00;;;;;;;30.96;74.16;100719.52;108689;1258;73484;-89
2023/08/11 05:56:34;;;;;;;4.40;3.20;;;;;;;30.85;74.74;100720.87;108661;1259;60265;-91
2023/08/11 05:59:22;;;;;;;7.10;2.70;;;;;;;30.83;75.40;100719.66;108569;1258;59858;-89
2023/08/11 06:02:10;;;;;;;4.50;2.70;;;;;;;30.83;76.38;100717.98;108759;1257;66958;-89
2023/08/11 06:04:57;;;;;;;8.80;3.20;;;;;;;30.87;77.22;100713.86;108758;1258;59777;-92
2023/08/11 06:07:45;;;;;;;5.50;3.10;;;;;;;30.94;76.11;100712.52;108722;1258;64230;-88
2023/08/11 06:10:51;;;;;;;5.40;3.40;;;;;;;30.96;75.20;100715.89;108725;1258;60168;-92
2023/08/11 06:13:40;;;;;;;4.40;2.70;;;;;;;30.88;75.61;100712.15;108769;1258;59398;-89
2023/08/11 06:16:27;;;;;;;3.90;2.60;;;;;;;30.80;75.50;100710.91;108706;1258;66814;-89
2023/08/11 06:19:16;;;;;;;3.90;2.80;;;;;;;30.69;76.25;100705.15;108798;1257;60926;-91
2023/08/11 06:22:04;;;;;;;4.30;3.10;;;;;;;30.65;77.01;100698.64;108754;1259;65425;-89
2023/08/11 06:24:52;;;;;;;4.30;3.10;;;;;;;30.76;76.72;100695.35;108761;1257;59473;-92
2023/08/11 06:27:40;;;;;;;5.00;3.00;;;;;;;30.83;76.83;100697.11;108742;1258;59407;-90
2023/08/11 06:30:28;;;;;;;5.30;3.00;;;;;;;30.81;77.40;100695.98;108636;1259;67043;-87
2023/08/11 06:33:16;;;;;;;8.30;3.00;;;;;;;30.94;77.22;100687.85;108681;1258;60168;-91
2023/08/11 06:36:04;;;;;;;4.80;3.30;;;;;;;31.03;77.10;100687.86;108699;1257;64681;-88
2023/08/11 06:38:52;;;;;;;6.30;2.90;;;;;;;31.15;76.05;100690.77;108756;1258;59838;-91
2023/08/11 06:41:41;;;;;;;6.20;3.00;;;;;;;31.15;75.67;100689.46;108699;1258;59585;-90
2023/08/11 22:22:16;;;;;;;3.20;2.50;;;;;;;24.45;100.00;100614.42;106304;1255;60446;-89
2023/08/11 22:25:06;;;;;;;3.40;2.20;;;;;;;24.44;100.00;100620.78;106379;1253;60460;-87
2023/08/11 22:27:54;;;;;;;9.00;2.60;;;;;;;24.42;100.00;100617.64;106718;1252;74756;-87
2023/08/11 22:30:42;;;;;;;6.40;2.80;;;;;;;24.57;100.00;100616.88;106369;1252;69636;-88
2023/08/11 22:33:31;;;;;;;5.20;2.10;;;;;;;24.59;100.00;100618.20;106262;1254;72353;-87
2023/08/11 22:36:19;;;;;;;2.90;2.20;;;;;;;24.57;100.00;100621.44;106324;1254;60517;-87
2023/08/11 22:39:07;;;;;;;5.40;2.40;;;;;;;24.56;100.00;100621.02;106201;1257;61150;-88
2023/08/11 22:41:56;;;;;;;3.40;2.50;;;;;;;24.57;100.00;100629.35;106338;1254;74883;-90
2023/08/11 22:44:44;;;;;;;4.30;2.60;;;;;;;24.68;100.00;100627.87;106313;1256;70555;-88
2023/08/11 22:47:32;;;;;;;4.70;2.60;;;;;;;24.80;100.00;100628.73;106323;1255;72361;-89
2023/08/11 22:50:21;;;;;;;3.20;2.20;;;;;;;24.83;100.00;100627.83;106323;1255;60380;-88
2023/08/11 22:53:08;;;;;;;4.50;2.20;;;;;;;24.91;100.00;100626.77;106548;1257;60446;-89
2023/08/11 22:55:57;;;;;;;3.40;2.20;;;;;;;24.88;100.00;100630.08;106316;1257;74905;-87
2023/08/11 22:58:45;;;;;;;3.30;2.20;;;;;;;24.94;100.00;100630.73;106331;1254;69702;-88
2023/08/11 23:01:34;;;;;;;4.00;2.30;;;;;;;24.89;100.00;100627.62;106377;1254;73986;-90
2023/08/11 23:04:22;;;;;;;2.90;2.30;;;;;;;24.84;100.00;100623.85;106136;1256;60662;-90
2023/08/11 23:07:11;;;;;;;4.20;2.40;;;;;;;24.96;100.00;100624.21;106000;1257;60478;-88
2023/08/11 23:09:59;;;;;;;4.70;2.50;;;;;;;24.83;100.00;100622.41;106194;1254;74629;-89
2023/08/11 23:12:47;;;;;;;3.90;2.70;;;;;;;24.75;100.00;100624.48;106197;1256;67723;-88
2023/08/11 23:15:36;;;;;;;5.60;2.50;;;;;;;24.64;100.00;100622.95;106273;1254;73896;-89
2023/08/11 23:18:24;;;;;;;5.60;2.50;;;;;;;24.59;100.00;100630.33;106603;1253;61306;-90
2023/08/11 23:21:12;;;;;;;4.40;2.60;;;;;;;24.58;100.00;100630.09;106318;1253;60440;-90
2023/08/11 23:24:00;;;;;;;4.50;2.60;;;;;;;24.53;100.00;100631.41;106128;1254;74706;-89
2023/08/11 23:26:49;;;;;;;5.50;2.80;;;;;;;24.37;100.00;100628.55;106073;1257;69565;-90
2023/08/11 23:29:37;;;;;;;6.20;3.00;;;;;;;24.26;100.00;100626.57;106157;1254;72671;-89
2023/08/11 23:32:29;;;;;;;4.10;2.60;;;;;;;24.14;100.00;100622.48;106317;1256;61458;-89
2023/08/11 23:35:17;;;;;;;3.90;2.90;;;;;;;24.10;100.00;100626.86;106321;1254;60319;-90
2023/08/11 23:38:06;;;;;;;4.60;2.90;;;;;;;24.09;100.00;100626.52;106278;1254;74889;-89
2023/08/11 23:40:54;;;;;;;3.90;2.60;;;;;;;24.02;100.00;100619.95;106366;1257;67334;-88
2023/08/11 23:43:42;;;;;;;5.70;2.40;;;;;;;23.85;100.00;100623.32;106493;1254;73900;-89
2023/08/11 23:46:30;;;;;;;6.20;2.70;;;;;;;23.77;100.00;100625.92;106317;1255;60469;-90
2023/08/11 23:49:18;;;;;;;3.80;2.90;;;;;;;23.82;100.00;100621.98;106130;1253;61204;-89
2023/08/11 23:52:06;;;;;;;4.80;2.90;;;;;;;23.80;100.00;100622.02;106044;1254;72702;-87
2023/08/11 23:54:54;;;;;;;6.30;3.10;;;;;;;23.65;100.00;100625.08;105987;1255;68032;-91
2023/08/11 23:57:43;;;;;;;4.70;3.00;;;;;;;23.66;100.00;100617.22;106094;1254;73884;-89
